馬公航空站 - ATIS

METAR RCQC 170400Z 01019KT 9999 FEW010 SCT016 30/27 Q0998 NOSIG RMK A2949 QFF999.2HPA=

站台狀態:Online
最後更新:2019-07-17 12:15:01